createdAt,value
2018-08-16T00:02:24.130Z,4.30
2018-08-16T00:04:51.234Z,4.60
2018-08-16T00:07:18.300Z,5.00
2018-08-16T00:09:45.415Z,4.83
2018-08-16T00:12:12.456Z,5.03
2018-08-16T00:14:39.511Z,5.08
2018-08-16T00:17:06.791Z,4.65
2018-08-16T00:19:33.881Z,5.08
2018-08-16T00:22:00.928Z,4.70
2018-08-16T00:24:28.084Z,4.37
2018-08-16T00:26:55.149Z,5.47
2018-08-16T00:29:22.205Z,4.83
2018-08-16T00:31:49.270Z,5.10
2018-08-16T00:34:16.316Z,4.75
2018-08-16T00:36:43.471Z,4.70
2018-08-16T00:39:11.051Z,6.00
2018-08-16T00:41:38.146Z,9.78
2018-08-16T00:44:05.214Z,10.85
2018-08-16T00:46:32.651Z,17.12
2018-08-16T00:48:59.718Z,19.15
2018-08-16T00:51:26.786Z,20.43
2018-08-16T00:53:53.952Z,20.20
2018-08-16T00:56:21.024Z,18.98
2018-08-16T00:58:48.164Z,17.67
2018-08-16T01:01:15.238Z,17.67
2018-08-16T01:03:42.341Z,15.65
2018-08-16T01:06:09.743Z,14.25
2018-08-16T01:08:36.795Z,14.35
2018-08-16T01:11:03.870Z,12.55
2018-08-16T01:13:30.892Z,11.55
2018-08-16T01:15:57.936Z,10.93
2018-08-16T01:18:24.993Z,10.80
2018-08-16T01:20:52.018Z,9.78
2018-08-16T01:23:19.119Z,9.88
2018-08-16T01:25:46.160Z,9.28
2018-08-16T01:28:13.187Z,8.90
2018-08-16T01:30:40.275Z,8.78
2018-08-16T01:33:07.311Z,7.83
2018-08-16T01:35:34.403Z,7.30
2018-08-16T01:38:01.384Z,7.25
2018-08-16T01:40:28.409Z,7.85
2018-08-16T01:42:55.558Z,7.20
2018-08-16T01:45:22.590Z,6.67
2018-08-16T01:47:49.688Z,6.85
2018-08-16T01:50:16.727Z,6.40
2018-08-16T01:52:43.760Z,6.53
2018-08-16T01:55:10.773Z,6.78
2018-08-16T01:57:37.924Z,6.10
2018-08-16T02:00:06.574Z,6.60
2018-08-16T02:02:33.636Z,5.85
2018-08-16T02:05:00.677Z,6.00
2018-08-16T02:07:27.727Z,5.87
2018-08-16T02:09:54.752Z,6.05
2018-08-16T02:12:21.821Z,5.95
2018-08-16T02:14:48.851Z,6.55
2018-08-16T02:17:15.879Z,5.58
2018-08-16T02:19:42.912Z,5.72
2018-08-16T02:22:09.944Z,5.30
2018-08-16T02:24:36.964Z,5.92
2018-08-16T02:27:04.099Z,5.47
2018-08-16T02:29:31.120Z,5.45
2018-08-16T02:31:58.189Z,5.72
2018-08-16T02:34:25.280Z,5.30
2018-08-16T02:36:52.292Z,5.78
2018-08-16T02:39:19.396Z,5.83
2018-08-16T02:41:46.456Z,5.75
2018-08-16T02:44:13.493Z,5.72
2018-08-16T02:46:40.532Z,5.50
2018-08-16T02:49:07.580Z,5.65
2018-08-16T02:51:34.684Z,5.20
2018-08-16T02:54:01.793Z,5.47
2018-08-16T02:56:28.836Z,5.75
2018-08-16T02:58:55.888Z,5.60
2018-08-16T03:01:22.912Z,5.33
2018-08-16T03:03:49.943Z,5.10
2018-08-16T03:06:16.989Z,5.55
2018-08-16T03:08:44.073Z,5.35
2018-08-16T03:11:11.123Z,5.08
2018-08-16T03:13:38.172Z,5.25
2018-08-16T03:16:05.572Z,5.00
2018-08-16T03:18:32.612Z,5.53
2018-08-16T03:20:59.643Z,4.90
2018-08-16T03:23:27.259Z,5.12
2018-08-16T03:25:54.312Z,4.65
2018-08-16T03:28:21.377Z,4.80
2018-08-16T03:30:48.413Z,5.00
2018-08-16T03:33:16.491Z,5.15
2018-08-16T03:35:43.533Z,4.95
2018-08-16T03:38:10.580Z,5.00
2018-08-16T03:40:37.636Z,4.60
2018-08-16T03:43:04.797Z,5.50
2018-08-16T03:45:31.823Z,5.33
2018-08-16T03:47:58.930Z,5.17
2018-08-16T03:50:25.920Z,5.15
2018-08-16T03:52:52.955Z,5.40
2018-08-16T03:55:20.048Z,5.53
2018-08-16T03:57:47.080Z,5.20
2018-08-16T04:00:14.165Z,5.45
2018-08-16T04:02:41.199Z,4.90
2018-08-16T04:05:08.507Z,4.85
2018-08-16T04:07:35.555Z,4.70
2018-08-16T04:10:02.978Z,4.87
2018-08-16T04:12:29.976Z,4.75
2018-08-16T04:14:57.000Z,4.80
2018-08-16T04:17:31.385Z,4.90
2018-08-16T04:19:58.420Z,5.03
2018-08-16T04:22:25.488Z,4.50
2018-08-16T04:24:52.767Z,4.75
2018-08-16T04:27:19.792Z,5.05
2018-08-16T04:29:46.869Z,4.95
2018-08-16T04:32:13.904Z,4.92
2018-08-16T04:34:40.997Z,4.95
2018-08-16T04:37:08.108Z,5.08
2018-08-16T04:39:35.160Z,4.78
2018-08-16T04:42:02.459Z,4.70
2018-08-16T04:44:29.419Z,4.58
2018-08-16T04:46:56.712Z,4.87
2018-08-16T04:49:23.795Z,4.62
2018-08-16T04:51:50.871Z,5.30
2018-08-16T04:54:18.006Z,4.62
2018-08-16T04:56:45.070Z,4.83
2018-08-16T04:59:12.131Z,4.40
2018-08-16T05:01:39.172Z,4.90
2018-08-16T05:04:06.464Z,4.80
2018-08-16T05:06:33.510Z,4.72
2018-08-16T05:09:00.628Z,4.80
2018-08-16T05:11:27.731Z,5.22
2018-08-16T05:13:54.771Z,5.25
2018-08-16T05:16:21.807Z,5.12
2018-08-16T05:18:48.839Z,4.83
2018-08-16T05:21:15.876Z,5.40
2018-08-16T05:23:42.935Z,5.28
2018-08-16T05:26:09.945Z,4.90
2018-08-16T05:28:37.024Z,5.40
2018-08-16T05:31:04.060Z,5.33
2018-08-16T05:33:31.182Z,5.53
2018-08-16T05:35:58.244Z,5.55
2018-08-16T05:38:25.294Z,5.83
2018-08-16T05:40:52.318Z,6.17
2018-08-16T05:43:19.368Z,5.70
2018-08-16T05:45:46.404Z,5.42
2018-08-16T05:48:13.468Z,5.90
2018-08-16T05:50:40.579Z,5.37
2018-08-16T05:53:07.583Z,6.10
2018-08-16T05:55:34.672Z,6.20
2018-08-16T05:58:01.711Z,5.75
2018-08-16T06:00:28.774Z,5.92
2018-08-16T06:02:55.790Z,5.37
2018-08-16T06:05:22.807Z,5.62
2018-08-16T06:07:49.912Z,6.15
2018-08-16T06:10:17.007Z,6.08
2018-08-16T06:12:44.047Z,6.08
2018-08-16T06:15:11.103Z,5.95
2018-08-16T06:17:38.152Z,6.05
2018-08-16T06:20:06.524Z,5.72
2018-08-16T06:22:33.829Z,6.62
2018-08-16T06:25:01.020Z,5.72
2018-08-16T06:27:28.063Z,6.28
2018-08-16T06:29:55.100Z,5.92
2018-08-16T06:32:22.138Z,6.42
2018-08-16T06:34:49.200Z,6.53
2018-08-16T06:37:16.235Z,6.75
2018-08-16T06:39:43.265Z,6.72
2018-08-16T06:42:10.281Z,6.70
2018-08-16T06:44:37.335Z,6.75
2018-08-16T06:47:04.553Z,6.72
2018-08-16T06:49:31.599Z,6.45
2018-08-16T06:51:58.732Z,6.90
2018-08-16T06:54:25.764Z,6.37
2018-08-16T06:56:52.892Z,6.67
2018-08-16T06:59:19.959Z,6.60
2018-08-16T07:01:47.001Z,6.55
2018-08-16T07:04:14.168Z,6.65
2018-08-16T07:06:41.215Z,6.53
2018-08-16T07:09:09.081Z,6.10
2018-08-16T07:11:36.127Z,6.28
2018-08-16T07:14:03.159Z,6.35
2018-08-16T07:16:30.234Z,6.03
2018-08-16T07:18:57.277Z,6.08
2018-08-16T07:21:24.439Z,6.47
2018-08-16T07:23:51.488Z,6.55
2018-08-16T07:26:18.520Z,5.62
2018-08-16T07:28:45.592Z,6.25
2018-08-16T07:31:12.629Z,5.35
2018-08-16T07:33:39.732Z,5.58
2018-08-16T07:36:06.775Z,6.00
2018-08-16T07:38:33.820Z,6.72
2018-08-16T07:41:01.135Z,5.75
2018-08-16T07:43:28.202Z,5.42
2018-08-16T07:45:55.308Z,5.62
2018-08-16T07:48:22.356Z,5.37
2018-08-16T07:50:49.396Z,5.45
2018-08-16T07:53:16.480Z,5.72
2018-08-16T07:55:43.522Z,5.60
2018-08-16T07:58:10.547Z,5.65
2018-08-16T08:00:37.611Z,5.22
2018-08-16T08:03:04.669Z,5.47
2018-08-16T08:05:31.699Z,4.87
2018-08-16T08:07:58.924Z,5.33
2018-08-16T08:10:25.951Z,4.95
2018-08-16T08:12:53.017Z,4.97
2018-08-16T08:15:20.109Z,5.53
2018-08-16T08:17:47.095Z,5.22
2018-08-16T08:20:14.776Z,4.85
2018-08-16T08:22:42.132Z,4.78
2018-08-16T08:25:09.184Z,4.95
2018-08-16T08:27:36.254Z,4.80
2018-08-16T08:30:03.911Z,5.17
2018-08-16T08:32:30.968Z,5.15
2018-08-16T08:34:58.101Z,5.58
2018-08-16T08:37:30.830Z,5.20
2018-08-16T08:39:57.940Z,4.97
2018-08-16T08:42:24.988Z,4.75
2018-08-16T08:44:52.020Z,4.30
2018-08-16T08:47:19.064Z,5.10
2018-08-16T08:49:46.184Z,4.65
2018-08-16T08:52:13.224Z,5.10
2018-08-16T08:54:48.208Z,4.80
2018-08-16T08:57:21.032Z,4.58
2018-08-16T08:59:48.067Z,4.03
2018-08-16T09:02:15.227Z,4.90
2018-08-16T09:04:42.273Z,4.60
2018-08-16T09:07:10.163Z,4.28
2018-08-16T09:09:37.195Z,4.65
2018-08-16T09:12:11.117Z,4.50
2018-08-16T09:14:43.924Z,4.30
2018-08-16T09:17:10.927Z,4.45
2018-08-16T09:19:37.957Z,4.30
2018-08-16T09:22:05.157Z,4.35
2018-08-16T09:24:32.193Z,4.33
2018-08-16T09:26:59.228Z,3.95
2018-08-16T09:29:32.945Z,4.05
2018-08-16T09:32:10.489Z,4.40
2018-08-16T09:34:37.504Z,4.50
2018-08-16T09:37:04.543Z,4.62
2018-08-16T09:39:31.575Z,4.08
2018-08-16T09:41:58.585Z,4.62
2018-08-16T09:44:25.744Z,4.20
2018-08-16T09:47:10.923Z,4.17
2018-08-16T09:49:47.541Z,3.98
2018-08-16T09:52:15.194Z,4.53
2018-08-16T09:54:42.220Z,4.22
2018-08-16T09:57:10.338Z,3.92
2018-08-16T09:59:37.389Z,3.77
2018-08-16T10:02:05.018Z,3.77
2018-08-16T10:04:32.021Z,3.77
2018-08-16T10:06:59.192Z,4.12
2018-08-16T10:09:28.500Z,3.75
2018-08-16T10:11:56.276Z,4.22
2018-08-16T10:14:23.379Z,3.80
2018-08-16T10:16:50.390Z,3.83
2018-08-16T10:19:17.617Z,4.25
2018-08-16T10:21:44.714Z,3.85
2018-08-16T10:24:11.746Z,4.28
2018-08-16T10:26:38.779Z,4.03
2018-08-16T10:29:06.124Z,4.25
2018-08-16T10:31:33.164Z,3.55
2018-08-16T10:34:00.177Z,3.58
2018-08-16T10:36:27.588Z,3.87
2018-08-16T10:38:54.632Z,3.40
2018-08-16T10:41:21.720Z,4.15
2018-08-16T10:43:48.756Z,4.20
2018-08-16T10:46:15.815Z,3.65
2018-08-16T10:48:42.828Z,3.08
2018-08-16T10:51:09.861Z,3.10
2018-08-16T10:53:36.888Z,3.45
2018-08-16T10:56:03.908Z,3.00
2018-08-16T10:58:31.211Z,3.55
2018-08-16T11:00:58.237Z,3.87
2018-08-16T11:03:25.438Z,3.37
2018-08-16T11:05:53.220Z,3.25
2018-08-16T11:08:20.246Z,3.15
2018-08-16T11:10:47.357Z,3.25
2018-08-16T11:13:14.512Z,2.98
2018-08-16T11:15:41.587Z,3.15
2018-08-16T11:18:09.140Z,3.33
2018-08-16T11:20:36.219Z,3.42
2018-08-16T11:23:03.272Z,3.27
2018-08-16T11:25:30.504Z,2.90
2018-08-16T11:27:57.639Z,3.70
2018-08-16T11:30:24.676Z,3.20
2018-08-16T11:32:51.696Z,3.30
2018-08-16T11:35:18.726Z,3.35
2018-08-16T11:37:45.781Z,3.02
2018-08-16T11:40:12.879Z,3.42
2018-08-16T11:42:40.070Z,3.58
2018-08-16T11:45:07.310Z,3.37
2018-08-16T11:47:34.395Z,3.22
2018-08-16T11:50:01.589Z,3.37
2018-08-16T11:52:28.628Z,3.20
2018-08-16T11:54:55.682Z,3.42
2018-08-16T11:57:22.829Z,3.30
2018-08-16T11:59:49.903Z,3.15
2018-08-16T12:02:16.988Z,2.90
2018-08-16T12:04:43.989Z,3.12
2018-08-16T12:07:11.012Z,2.87
2018-08-16T12:09:38.130Z,3.00
2018-08-16T12:12:05.475Z,3.05
2018-08-16T12:14:32.504Z,2.87
2018-08-16T12:16:59.632Z,3.08
2018-08-16T12:19:26.632Z,3.10
2018-08-16T12:21:53.643Z,3.22
2018-08-16T12:24:20.664Z,3.10
2018-08-16T12:26:47.707Z,3.35
2018-08-16T12:29:14.708Z,3.10
2018-08-16T12:31:41.777Z,3.12
2018-08-16T12:34:08.808Z,3.10
2018-08-16T12:36:36.044Z,3.00
2018-08-16T12:39:03.946Z,2.80
2018-08-16T12:41:30.976Z,3.40
2018-08-16T12:43:58.076Z,2.80
2018-08-16T12:46:25.236Z,3.55
2018-08-16T12:48:52.176Z,3.60
2018-08-16T12:51:19.835Z,3.02
2018-08-16T12:53:46.932Z,3.08
2018-08-16T12:56:14.203Z,2.90
2018-08-16T12:58:41.272Z,2.90
2018-08-16T13:01:08.328Z,2.98
2018-08-16T13:03:35.351Z,3.10
2018-08-16T13:06:02.413Z,3.30
2018-08-16T13:08:29.438Z,3.02
2018-08-16T13:10:56.547Z,3.30
2018-08-16T13:13:23.555Z,2.85
2018-08-16T13:15:50.609Z,2.98
2018-08-16T13:18:17.662Z,3.30
2018-08-16T13:20:44.703Z,2.83
2018-08-16T13:23:11.742Z,3.08
2018-08-16T13:25:38.764Z,3.47
2018-08-16T13:28:05.824Z,2.85
2018-08-16T13:30:32.863Z,3.02
2018-08-16T13:32:59.880Z,2.92
2018-08-16T13:35:26.921Z,2.87
2018-08-16T13:37:53.964Z,2.90
2018-08-16T13:40:21.005Z,2.75
2018-08-16T13:42:48.028Z,3.02
2018-08-16T13:45:15.132Z,3.10
2018-08-16T13:47:42.192Z,3.20
2018-08-16T13:50:09.270Z,2.75
2018-08-16T13:52:36.280Z,3.30
2018-08-16T13:55:03.478Z,3.00
2018-08-16T13:57:30.499Z,3.08
2018-08-16T13:59:57.527Z,3.40
2018-08-16T14:02:24.567Z,3.25
2018-08-16T14:04:51.614Z,3.05
2018-08-16T14:07:18.631Z,3.25
2018-08-16T14:09:45.649Z,3.12
2018-08-16T14:12:12.668Z,3.12
2018-08-16T14:14:39.687Z,3.30
2018-08-16T14:17:06.902Z,2.62
2018-08-16T14:19:33.931Z,3.00
2018-08-16T14:22:01.020Z,3.08
2018-08-16T14:24:28.068Z,3.15
2018-08-16T14:26:55.088Z,3.33
2018-08-16T14:29:22.172Z,2.80
2018-08-16T14:31:49.204Z,2.62
2018-08-16T14:34:16.309Z,2.92
2018-08-16T14:36:43.358Z,3.00
2018-08-16T14:39:11.988Z,3.30
2018-08-16T14:41:39.043Z,3.62
2018-08-16T14:44:06.297Z,3.08
2018-08-16T14:46:33.336Z,3.35
2018-08-16T14:49:00.377Z,3.50
2018-08-16T14:51:27.497Z,2.72
2018-08-16T14:53:54.472Z,3.08
2018-08-16T14:56:21.501Z,3.10
2018-08-16T14:58:48.591Z,3.25
2018-08-16T15:01:15.630Z,3.47
2018-08-16T15:03:42.659Z,2.92
2018-08-16T15:06:09.688Z,2.80
2018-08-16T15:08:36.756Z,2.98
2018-08-16T15:11:03.891Z,3.60
2018-08-16T15:13:30.944Z,3.52
2018-08-16T15:15:58.212Z,3.22
2018-08-16T15:18:25.248Z,3.62
2018-08-16T15:20:52.292Z,3.90
2018-08-16T15:23:19.434Z,3.40
2018-08-16T15:25:46.492Z,3.35
2018-08-16T15:28:13.636Z,3.95
2018-08-16T15:30:40.827Z,4.15
2018-08-16T15:33:07.892Z,4.00
2018-08-16T15:35:34.986Z,4.08
2018-08-16T15:38:02.041Z,4.35
2018-08-16T15:40:29.169Z,3.55
2018-08-16T15:42:56.281Z,3.90
2018-08-16T15:45:23.392Z,4.28
2018-08-16T15:47:50.453Z,3.75
2018-08-16T15:50:17.480Z,3.75
2018-08-16T15:52:44.575Z,3.52
2018-08-16T15:55:11.611Z,3.25
2018-08-16T15:57:38.899Z,3.25
2018-08-16T16:00:09.532Z,3.72
2018-08-16T16:02:36.719Z,3.83
2018-08-16T16:05:03.776Z,3.00
2018-08-16T16:07:30.875Z,3.20
2018-08-16T16:09:58.034Z,4.03
2018-08-16T16:12:25.049Z,3.12
2018-08-16T16:14:52.063Z,3.35
2018-08-16T16:17:19.134Z,3.22
2018-08-16T16:19:46.160Z,3.70
2018-08-16T16:22:13.240Z,3.52
2018-08-16T16:24:40.301Z,4.00
2018-08-16T16:27:07.316Z,3.62
2018-08-16T16:29:34.366Z,3.35
2018-08-16T16:32:01.409Z,4.25
2018-08-16T16:34:28.488Z,4.00
2018-08-16T16:36:55.541Z,3.83
2018-08-16T16:39:22.584Z,3.60
2018-08-16T16:41:49.607Z,3.77
2018-08-16T16:44:16.624Z,4.12
2018-08-16T16:46:43.692Z,4.00
2018-08-16T16:49:10.707Z,3.22
2018-08-16T16:51:37.728Z,3.80
2018-08-16T16:54:04.920Z,4.25
2018-08-16T16:56:31.936Z,4.00
2018-08-16T16:58:58.996Z,3.65
2018-08-16T17:01:26.083Z,3.60
2018-08-16T17:03:53.097Z,3.67
2018-08-16T17:06:20.115Z,3.70
2018-08-16T17:08:47.161Z,3.62
2018-08-16T17:11:14.171Z,3.55
2018-08-16T17:13:41.199Z,3.35
2018-08-16T17:16:08.284Z,4.12
2018-08-16T17:18:35.356Z,3.75
2018-08-16T17:21:02.625Z,3.25
2018-08-16T17:23:29.647Z,3.52
2018-08-16T17:25:56.791Z,3.37
2018-08-16T17:28:23.744Z,3.50
2018-08-16T17:30:50.783Z,3.72
2018-08-16T17:33:17.979Z,3.98
2018-08-16T17:35:45.029Z,3.42
2018-08-16T17:38:12.044Z,3.70
2018-08-16T17:40:39.117Z,3.47
2018-08-16T17:43:06.246Z,4.00
2018-08-16T17:45:33.304Z,4.15
2018-08-16T17:48:00.404Z,3.77
2018-08-16T17:50:27.434Z,3.72
2018-08-16T17:52:54.533Z,3.62
2018-08-16T17:55:21.565Z,4.17
2018-08-16T17:57:48.713Z,4.33
2018-08-16T18:00:15.769Z,4.08
2018-08-16T18:02:42.796Z,4.60
2018-08-16T18:05:09.819Z,4.03
2018-08-16T18:07:36.872Z,4.15
2018-08-16T18:10:04.707Z,4.45
2018-08-16T18:12:32.019Z,4.95
2018-08-16T18:14:59.116Z,4.83
2018-08-16T18:17:26.689Z,5.17
2018-08-16T18:19:53.701Z,4.45
2018-08-16T18:22:20.714Z,6.22
2018-08-16T18:24:47.800Z,5.42
2018-08-16T18:27:14.860Z,5.35
2018-08-16T18:29:41.884Z,5.30
2018-08-16T18:32:09.080Z,5.45
2018-08-16T18:34:36.097Z,4.95
2018-08-16T18:37:03.362Z,5.70
2018-08-16T18:39:30.359Z,5.42
2018-08-16T18:41:57.423Z,5.40
2018-08-16T18:44:24.591Z,5.28
2018-08-16T18:46:51.716Z,5.15
2018-08-16T18:49:18.903Z,5.15
2018-08-16T18:51:45.941Z,4.95
2018-08-16T18:54:13.077Z,5.15
2018-08-16T18:56:40.069Z,5.65
2018-08-16T18:59:07.271Z,5.67
2018-08-16T19:01:34.512Z,4.92
2018-08-16T19:04:01.532Z,5.22
2018-08-16T19:06:28.580Z,4.65
2018-08-16T19:08:55.655Z,4.95
2018-08-16T19:11:22.687Z,4.80
2018-08-16T19:13:49.782Z,5.10
2018-08-16T19:16:16.827Z,5.20
2018-08-16T19:18:43.939Z,5.45
2018-08-16T19:21:11.073Z,5.47
2018-08-16T19:23:38.110Z,6.35
2018-08-16T19:26:05.291Z,5.60
2018-08-16T19:28:32.519Z,6.30
2018-08-16T19:30:59.901Z,6.65
2018-08-16T19:33:26.936Z,6.85
2018-08-16T19:35:54.008Z,5.65
2018-08-16T19:38:21.017Z,6.30
2018-08-16T19:40:48.137Z,7.47
2018-08-16T19:43:15.156Z,7.30
2018-08-16T19:45:42.180Z,6.78
2018-08-16T19:48:09.334Z,7.17
2018-08-16T19:50:36.307Z,6.50
2018-08-16T19:53:03.364Z,6.22
2018-08-16T19:55:30.421Z,6.47
2018-08-16T19:57:57.531Z,7.10
2018-08-16T20:00:24.604Z,7.33
2018-08-16T20:02:51.664Z,8.48
2018-08-16T20:05:18.731Z,6.78
2018-08-16T20:07:45.764Z,7.62
2018-08-16T20:10:12.843Z,6.97
2018-08-16T20:12:39.855Z,7.12
2018-08-16T20:15:07.372Z,7.47
2018-08-16T20:17:34.459Z,7.47
2018-08-16T20:20:01.509Z,7.90
2018-08-16T20:22:28.599Z,7.87
2018-08-16T20:24:55.675Z,7.78
2018-08-16T20:27:22.738Z,8.08
2018-08-16T20:29:49.844Z,7.83
2018-08-16T20:32:16.904Z,8.40
2018-08-16T20:34:45.045Z,7.87
2018-08-16T20:37:12.140Z,8.60
2018-08-16T20:39:40.588Z,7.40
2018-08-16T20:42:07.624Z,8.13
2018-08-16T20:44:34.645Z,8.15
2018-08-16T20:47:01.811Z,7.85
2018-08-16T20:49:28.925Z,7.60
2018-08-16T20:51:56.039Z,7.95
2018-08-16T20:54:23.119Z,7.53
2018-08-16T20:56:50.202Z,7.67
2018-08-16T20:59:17.614Z,7.65
2018-08-16T21:01:44.729Z,7.35
2018-08-16T21:04:11.786Z,8.10
2018-08-16T21:06:38.923Z,7.58
2018-08-16T21:09:06.415Z,8.25
2018-08-16T21:11:33.586Z,8.35
2018-08-16T21:14:00.713Z,7.97
2018-08-16T21:16:27.741Z,7.42
2018-08-16T21:18:54.820Z,7.72
2018-08-16T21:21:21.916Z,7.30
2018-08-16T21:23:49.045Z,8.25
2018-08-16T21:26:16.104Z,9.00
2018-08-16T21:28:43.135Z,7.65
2018-08-16T21:31:10.206Z,8.55
2018-08-16T21:33:37.212Z,9.23
2018-08-16T21:36:04.318Z,8.83
2018-08-16T21:38:31.404Z,9.43
2018-08-16T21:40:58.676Z,8.58
2018-08-16T21:43:25.928Z,9.25
2018-08-16T21:45:52.971Z,9.35
2018-08-16T21:48:20.083Z,8.28
2018-08-16T21:50:47.112Z,8.03
2018-08-16T21:53:14.175Z,8.08
2018-08-16T21:55:42.173Z,6.83
2018-08-16T21:58:09.221Z,8.63
2018-08-16T22:00:49.804Z,7.70
2018-08-16T22:03:18.592Z,7.55
2018-08-16T22:05:51.970Z,7.72
2018-08-16T22:08:18.940Z,7.45
2018-08-16T22:10:46.100Z,8.30
2018-08-16T22:13:14.222Z,7.87
2018-08-16T22:15:41.292Z,7.60
2018-08-16T22:18:08.330Z,7.85
2018-08-16T22:20:35.484Z,7.40
2018-08-16T22:23:02.524Z,7.70
2018-08-16T22:25:29.640Z,7.90
2018-08-16T22:27:56.728Z,7.60
2018-08-16T22:30:23.765Z,7.60
2018-08-16T22:32:50.811Z,7.85
2018-08-16T22:35:18.136Z,7.80
2018-08-16T22:37:45.195Z,7.85
2018-08-16T22:40:12.473Z,7.92
2018-08-16T22:42:39.746Z,8.00
2018-08-16T22:45:06.772Z,8.25
2018-08-16T22:47:33.826Z,8.50
2018-08-16T22:50:00.863Z,8.35
2018-08-16T22:52:27.956Z,7.75
2018-08-16T22:54:54.988Z,8.58
2018-08-16T22:57:22.190Z,8.08
2018-08-16T22:59:49.276Z,8.30
2018-08-16T23:02:16.330Z,8.45
2018-08-16T23:04:43.408Z,8.65
2018-08-16T23:07:10.543Z,7.90
2018-08-16T23:09:37.999Z,8.35
2018-08-16T23:12:05.023Z,8.53
2018-08-16T23:14:32.096Z,7.67
2018-08-16T23:16:59.112Z,8.15
2018-08-16T23:19:26.158Z,8.08
2018-08-16T23:21:53.183Z,7.50
2018-08-16T23:24:20.216Z,7.70
2018-08-16T23:26:47.387Z,8.08
2018-08-16T23:29:14.413Z,7.50
2018-08-16T23:31:41.470Z,8.20
2018-08-16T23:34:08.497Z,7.83
2018-08-16T23:36:35.532Z,7.33
2018-08-16T23:39:02.745Z,7.20
2018-08-16T23:41:29.776Z,6.90
2018-08-16T23:43:56.975Z,7.30
2018-08-16T23:46:24.122Z,7.00
2018-08-16T23:48:51.152Z,6.60
2018-08-16T23:51:18.195Z,7.53
2018-08-16T23:53:45.284Z,7.55
2018-08-16T23:56:12.360Z,7.08
2018-08-16T23:58:39.568Z,7.75
